sensor_id;sensor_type;location;lat;lon;timestamp;P1;durP1;ratioP1;P2;durP2;ratioP2
8532;SDS011;4304;53.876;10.662;2022-12-11T00:02:06;8.17;;;4.40;;
8532;SDS011;4304;53.876;10.662;2022-12-11T00:04:31;8.93;;;3.93;;
8532;SDS011;4304;53.876;10.662;2022-12-11T00:06:57;11.43;;;4.37;;
8532;SDS011;4304;53.876;10.662;2022-12-11T00:09:22;10.90;;;5.30;;
8532;SDS011;4304;53.876;10.662;2022-12-11T00:11:47;8.73;;;4.60;;
8532;SDS011;4304;53.876;10.662;2022-12-11T00:14:13;9.73;;;4.43;;
8532;SDS011;4304;53.876;10.662;2022-12-11T00:16:39;7.50;;;4.17;;
8532;SDS011;4304;53.876;10.662;2022-12-11T00:19:05;10.43;;;5.10;;
8532;SDS011;4304;53.876;10.662;2022-12-11T00:21:31;7.07;;;3.80;;
8532;SDS011;4304;53.876;10.662;2022-12-11T00:24:12;10.33;;;4.00;;
8532;SDS011;4304;53.876;10.662;2022-12-11T00:26:38;8.83;;;4.10;;
8532;SDS011;4304;53.876;10.662;2022-12-11T00:29:03;7.33;;;3.60;;
8532;SDS011;4304;53.876;10.662;2022-12-11T00:31:30;9.93;;;4.40;;
8532;SDS011;4304;53.876;10.662;2022-12-11T00:33:56;9.13;;;4.10;;
8532;SDS011;4304;53.876;10.662;2022-12-11T00:36:22;7.27;;;3.63;;
8532;SDS011;4304;53.876;10.662;2022-12-11T00:38:49;10.10;;;4.50;;
8532;SDS011;4304;53.876;10.662;2022-12-11T00:41:22;6.10;;;3.40;;
8532;SDS011;4304;53.876;10.662;2022-12-11T00:43:48;10.93;;;4.17;;
8532;SDS011;4304;53.876;10.662;2022-12-11T00:46:13;7.90;;;4.50;;
8532;SDS011;4304;53.876;10.662;2022-12-11T00:48:38;7.53;;;4.30;;
8532;SDS011;4304;53.876;10.662;2022-12-11T00:51:04;8.07;;;3.87;;
8532;SDS011;4304;53.876;10.662;2022-12-11T00:53:29;9.87;;;3.80;;
8532;SDS011;4304;53.876;10.662;2022-12-11T00:55:55;9.40;;;3.93;;
8532;SDS011;4304;53.876;10.662;2022-12-11T00:58:20;8.17;;;4.10;;
8532;SDS011;4304;53.876;10.662;2022-12-11T01:00:45;6.77;;;4.10;;
8532;SDS011;4304;53.876;10.662;2022-12-11T01:03:12;8.40;;;4.53;;
8532;SDS011;4304;53.876;10.662;2022-12-11T01:05:40;7.93;;;4.50;;
8532;SDS011;4304;53.876;10.662;2022-12-11T01:08:06;9.57;;;4.00;;
8532;SDS011;4304;53.876;10.662;2022-12-11T01:10:32;11.00;;;4.63;;
8532;SDS011;4304;53.876;10.662;2022-12-11T01:13:02;7.83;;;4.27;;
8532;SDS011;4304;53.876;10.662;2022-12-11T01:15:30;8.27;;;4.27;;
8532;SDS011;4304;53.876;10.662;2022-12-11T01:17:58;5.77;;;3.13;;
8532;SDS011;4304;53.876;10.662;2022-12-11T01:20:25;8.10;;;4.83;;
8532;SDS011;4304;53.876;10.662;2022-12-11T01:22:52;11.57;;;4.67;;
8532;SDS011;4304;53.876;10.662;2022-12-11T01:25:18;10.70;;;4.33;;
8532;SDS011;4304;53.876;10.662;2022-12-11T01:27:44;10.43;;;4.00;;
8532;SDS011;4304;53.876;10.662;2022-12-11T01:30:09;6.73;;;4.07;;
8532;SDS011;4304;53.876;10.662;2022-12-11T01:32:35;7.20;;;3.80;;
8532;SDS011;4304;53.876;10.662;2022-12-11T01:35:14;7.97;;;3.53;;
8532;SDS011;4304;53.876;10.662;2022-12-11T01:37:40;8.67;;;3.83;;
8532;SDS011;4304;53.876;10.662;2022-12-11T01:40:06;9.97;;;4.30;;
8532;SDS011;4304;53.876;10.662;2022-12-11T01:42:33;6.53;;;3.30;;
8532;SDS011;4304;53.876;10.662;2022-12-11T01:47:42;11.37;;;4.43;;
8532;SDS011;4304;53.876;10.662;2022-12-11T01:50:08;6.80;;;3.80;;
8532;SDS011;4304;53.876;10.662;2022-12-11T01:52:33;7.07;;;4.07;;
8532;SDS011;4304;53.876;10.662;2022-12-11T01:54:58;8.07;;;4.40;;
8532;SDS011;4304;53.876;10.662;2022-12-11T01:57:24;7.80;;;3.83;;
8532;SDS011;4304;53.876;10.662;2022-12-11T01:59:49;7.87;;;3.87;;
8532;SDS011;4304;53.876;10.662;2022-12-11T02:02:21;8.60;;;3.77;;
8532;SDS011;4304;53.876;10.662;2022-12-11T02:04:51;7.87;;;3.70;;
8532;SDS011;4304;53.876;10.662;2022-12-11T02:07:16;7.20;;;3.80;;
8532;SDS011;4304;53.876;10.662;2022-12-11T02:09:42;7.67;;;3.53;;
8532;SDS011;4304;53.876;10.662;2022-12-11T02:12:14;8.50;;;3.30;;
8532;SDS011;4304;53.876;10.662;2022-12-11T02:23:51;7.17;;;3.77;;
8532;SDS011;4304;53.876;10.662;2022-12-11T02:29:29;8.60;;;4.83;;
8532;SDS011;4304;53.876;10.662;2022-12-11T02:34:33;7.20;;;3.17;;
8532;SDS011;4304;53.876;10.662;2022-12-11T02:37:06;8.13;;;4.00;;
8532;SDS011;4304;53.876;10.662;2022-12-11T02:39:37;7.73;;;3.30;;
8532;SDS011;4304;53.876;10.662;2022-12-11T02:42:04;6.17;;;3.90;;
8532;SDS011;4304;53.876;10.662;2022-12-11T02:44:32;8.07;;;4.37;;
8532;SDS011;4304;53.876;10.662;2022-12-11T02:49:45;4.93;;;3.10;;
8532;SDS011;4304;53.876;10.662;2022-12-11T02:52:13;8.90;;;3.63;;
8532;SDS011;4304;53.876;10.662;2022-12-11T02:54:43;6.93;;;4.10;;
8532;SDS011;4304;53.876;10.662;2022-12-11T02:57:11;7.63;;;4.33;;
8532;SDS011;4304;53.876;10.662;2022-12-11T02:59:41;6.87;;;3.77;;
8532;SDS011;4304;53.876;10.662;2022-12-11T03:02:08;6.17;;;3.40;;
8532;SDS011;4304;53.876;10.662;2022-12-11T03:04:36;5.20;;;3.13;;
8532;SDS011;4304;53.876;10.662;2022-12-11T03:07:03;5.83;;;3.77;;
8532;SDS011;4304;53.876;10.662;2022-12-11T03:09:32;9.97;;;3.70;;
8532;SDS011;4304;53.876;10.662;2022-12-11T03:11:57;6.10;;;3.63;;
8532;SDS011;4304;53.876;10.662;2022-12-11T03:14:22;7.67;;;3.90;;
8532;SDS011;4304;53.876;10.662;2022-12-11T03:16:51;11.53;;;4.17;;
8532;SDS011;4304;53.876;10.662;2022-12-11T03:19:29;9.57;;;5.10;;
8532;SDS011;4304;53.876;10.662;2022-12-11T03:24:47;7.17;;;3.30;;
8532;SDS011;4304;53.876;10.662;2022-12-11T03:32:55;7.03;;;4.13;;
8532;SDS011;4304;53.876;10.662;2022-12-11T03:35:25;4.73;;;2.90;;
8532;SDS011;4304;53.876;10.662;2022-12-11T03:37:55;7.27;;;3.40;;
8532;SDS011;4304;53.876;10.662;2022-12-11T03:40:24;5.10;;;3.50;;
8532;SDS011;4304;53.876;10.662;2022-12-11T03:42:51;4.63;;;2.97;;
8532;SDS011;4304;53.876;10.662;2022-12-11T03:45:20;7.27;;;3.53;;
8532;SDS011;4304;53.876;10.662;2022-12-11T03:47:47;4.83;;;3.17;;
8532;SDS011;4304;53.876;10.662;2022-12-11T03:50:15;5.17;;;3.00;;
8532;SDS011;4304;53.876;10.662;2022-12-11T03:52:43;9.17;;;3.73;;
8532;SDS011;4304;53.876;10.662;2022-12-11T03:55:11;6.40;;;3.20;;
8532;SDS011;4304;53.876;10.662;2022-12-11T03:57:38;6.40;;;3.70;;
8532;SDS011;4304;53.876;10.662;2022-12-11T04:00:08;8.43;;;3.30;;
8532;SDS011;4304;53.876;10.662;2022-12-11T04:02:35;5.97;;;3.27;;
8532;SDS011;4304;53.876;10.662;2022-12-11T04:05:01;5.37;;;3.43;;
8532;SDS011;4304;53.876;10.662;2022-12-11T04:07:27;5.93;;;3.47;;
8532;SDS011;4304;53.876;10.662;2022-12-11T04:09:52;6.73;;;3.43;;
8532;SDS011;4304;53.876;10.662;2022-12-11T04:12:30;5.50;;;3.87;;
8532;SDS011;4304;53.876;10.662;2022-12-11T04:14:56;9.37;;;4.37;;
8532;SDS011;4304;53.876;10.662;2022-12-11T04:17:21;8.17;;;3.53;;
8532;SDS011;4304;53.876;10.662;2022-12-11T04:19:46;10.60;;;4.37;;
8532;SDS011;4304;53.876;10.662;2022-12-11T04:22:12;5.27;;;3.20;;
8532;SDS011;4304;53.876;10.662;2022-12-11T04:24:39;9.00;;;3.87;;
8532;SDS011;4304;53.876;10.662;2022-12-11T04:27:05;5.80;;;3.30;;
8532;SDS011;4304;53.876;10.662;2022-12-11T04:29:30;8.83;;;3.87;;
8532;SDS011;4304;53.876;10.662;2022-12-11T04:31:55;10.77;;;4.93;;
8532;SDS011;4304;53.876;10.662;2022-12-11T04:34:21;6.40;;;3.40;;
8532;SDS011;4304;53.876;10.662;2022-12-11T04:36:46;6.43;;;3.33;;
8532;SDS011;4304;53.876;10.662;2022-12-11T04:39:12;7.50;;;3.87;;
8532;SDS011;4304;53.876;10.662;2022-12-11T04:41:38;7.23;;;3.60;;
8532;SDS011;4304;53.876;10.662;2022-12-11T04:44:03;5.87;;;3.67;;
8532;SDS011;4304;53.876;10.662;2022-12-11T04:46:29;5.43;;;3.23;;
8532;SDS011;4304;53.876;10.662;2022-12-11T04:48:55;7.47;;;3.40;;
8532;SDS011;4304;53.876;10.662;2022-12-11T04:51:20;6.13;;;3.57;;
8532;SDS011;4304;53.876;10.662;2022-12-11T04:53:45;8.30;;;3.80;;
8532;SDS011;4304;53.876;10.662;2022-12-11T04:56:12;12.03;;;4.27;;
8532;SDS011;4304;53.876;10.662;2022-12-11T04:58:40;9.57;;;4.27;;
8532;SDS011;4304;53.876;10.662;2022-12-11T05:01:24;8.93;;;5.30;;
8532;SDS011;4304;53.876;10.662;2022-12-11T05:03:49;10.13;;;3.90;;
8532;SDS011;4304;53.876;10.662;2022-12-11T05:06:14;10.90;;;4.63;;
8532;SDS011;4304;53.876;10.662;2022-12-11T05:08:40;9.53;;;4.50;;
8532;SDS011;4304;53.876;10.662;2022-12-11T05:11:07;10.50;;;5.03;;
8532;SDS011;4304;53.876;10.662;2022-12-11T05:13:34;9.90;;;4.93;;
8532;SDS011;4304;53.876;10.662;2022-12-11T05:16:00;10.83;;;4.33;;
8532;SDS011;4304;53.876;10.662;2022-12-11T05:18:27;8.80;;;5.10;;
8532;SDS011;4304;53.876;10.662;2022-12-11T05:20:56;8.80;;;4.83;;
8532;SDS011;4304;53.876;10.662;2022-12-11T05:23:26;15.40;;;6.10;;
8532;SDS011;4304;53.876;10.662;2022-12-11T05:25:52;10.20;;;5.03;;
8532;SDS011;4304;53.876;10.662;2022-12-11T05:28:18;8.00;;;4.30;;
8532;SDS011;4304;53.876;10.662;2022-12-11T05:30:43;7.23;;;3.97;;
8532;SDS011;4304;53.876;10.662;2022-12-11T05:33:09;10.10;;;4.87;;
8532;SDS011;4304;53.876;10.662;2022-12-11T05:35:34;9.40;;;4.37;;
8532;SDS011;4304;53.876;10.662;2022-12-11T05:37:59;6.90;;;4.27;;
8532;SDS011;4304;53.876;10.662;2022-12-11T05:40:24;6.90;;;3.63;;
8532;SDS011;4304;53.876;10.662;2022-12-11T05:42:50;8.43;;;4.67;;
8532;SDS011;4304;53.876;10.662;2022-12-11T05:45:15;7.97;;;4.70;;
8532;SDS011;4304;53.876;10.662;2022-12-11T05:47:44;7.53;;;4.23;;
8532;SDS011;4304;53.876;10.662;2022-12-11T05:50:10;5.47;;;3.53;;
8532;SDS011;4304;53.876;10.662;2022-12-11T05:52:35;9.73;;;4.23;;
8532;SDS011;4304;53.876;10.662;2022-12-11T05:55:00;10.83;;;3.80;;
8532;SDS011;4304;53.876;10.662;2022-12-11T05:57:25;9.57;;;4.27;;
8532;SDS011;4304;53.876;10.662;2022-12-11T05:59:51;8.47;;;3.67;;
8532;SDS011;4304;53.876;10.662;2022-12-11T06:02:16;11.90;;;3.77;;
8532;SDS011;4304;53.876;10.662;2022-12-11T06:04:41;10.63;;;3.93;;
8532;SDS011;4304;53.876;10.662;2022-12-11T06:07:07;7.40;;;3.90;;
8532;SDS011;4304;53.876;10.662;2022-12-11T06:09:33;7.27;;;3.40;;
8532;SDS011;4304;53.876;10.662;2022-12-11T06:11:58;7.13;;;4.03;;
8532;SDS011;4304;53.876;10.662;2022-12-11T06:14:23;6.27;;;2.83;;
8532;SDS011;4304;53.876;10.662;2022-12-11T06:16:48;9.87;;;4.23;;
8532;SDS011;4304;53.876;10.662;2022-12-11T06:21:59;6.53;;;3.33;;
8532;SDS011;4304;53.876;10.662;2022-12-11T06:24:24;7.33;;;3.87;;
8532;SDS011;4304;53.876;10.662;2022-12-11T06:29:21;6.57;;;3.80;;
8532;SDS011;4304;53.876;10.662;2022-12-11T06:31:46;9.37;;;4.67;;
8532;SDS011;4304;53.876;10.662;2022-12-11T06:34:12;11.20;;;4.60;;
8532;SDS011;4304;53.876;10.662;2022-12-11T06:36:37;11.17;;;5.27;;
8532;SDS011;4304;53.876;10.662;2022-12-11T06:39:02;12.13;;;4.53;;
8532;SDS011;4304;53.876;10.662;2022-12-11T06:41:27;10.43;;;4.47;;
8532;SDS011;4304;53.876;10.662;2022-12-11T06:43:53;8.80;;;4.60;;
8532;SDS011;4304;53.876;10.662;2022-12-11T06:46:18;9.80;;;4.87;;
8532;SDS011;4304;53.876;10.662;2022-12-11T06:48:44;6.50;;;4.27;;
8532;SDS011;4304;53.876;10.662;2022-12-11T06:51:12;10.73;;;4.67;;
8532;SDS011;4304;53.876;10.662;2022-12-11T06:53:44;12.40;;;4.97;;
8532;SDS011;4304;53.876;10.662;2022-12-11T06:56:14;11.37;;;4.53;;
8532;SDS011;4304;53.876;10.662;2022-12-11T06:58:39;12.30;;;5.50;;
8532;SDS011;4304;53.876;10.662;2022-12-11T07:03:44;7.03;;;4.50;;
8532;SDS011;4304;53.876;10.662;2022-12-11T07:06:10;8.83;;;4.67;;
8532;SDS011;4304;53.876;10.662;2022-12-11T07:08:35;8.20;;;4.33;;
8532;SDS011;4304;53.876;10.662;2022-12-11T07:11:02;10.37;;;5.17;;
8532;SDS011;4304;53.876;10.662;2022-12-11T07:13:30;9.17;;;5.00;;
8532;SDS011;4304;53.876;10.662;2022-12-11T07:15:56;7.67;;;4.33;;
8532;SDS011;4304;53.876;10.662;2022-12-11T07:18:22;9.13;;;4.70;;
8532;SDS011;4304;53.876;10.662;2022-12-11T07:20:47;12.87;;;5.63;;
8532;SDS011;4304;53.876;10.662;2022-12-11T07:23:12;8.07;;;4.47;;
8532;SDS011;4304;53.876;10.662;2022-12-11T07:25:38;8.70;;;3.87;;
8532;SDS011;4304;53.876;10.662;2022-12-11T07:28:03;9.37;;;4.87;;
8532;SDS011;4304;53.876;10.662;2022-12-11T07:30:28;12.17;;;4.70;;
8532;SDS011;4304;53.876;10.662;2022-12-11T07:32:53;12.70;;;4.50;;
8532;SDS011;4304;53.876;10.662;2022-12-11T07:35:27;11.00;;;5.20;;
8532;SDS011;4304;53.876;10.662;2022-12-11T07:37:52;10.27;;;4.67;;
8532;SDS011;4304;53.876;10.662;2022-12-11T07:40:24;8.43;;;4.97;;
8532;SDS011;4304;53.876;10.662;2022-12-11T07:43:05;9.37;;;4.43;;
8532;SDS011;4304;53.876;10.662;2022-12-11T07:45:30;9.50;;;5.90;;
8532;SDS011;4304;53.876;10.662;2022-12-11T07:47:56;11.37;;;5.03;;
8532;SDS011;4304;53.876;10.662;2022-12-11T07:50:21;12.53;;;5.90;;
8532;SDS011;4304;53.876;10.662;2022-12-11T07:52:54;15.90;;;6.63;;
8532;SDS011;4304;53.876;10.662;2022-12-11T07:55:20;12.53;;;7.13;;
8532;SDS011;4304;53.876;10.662;2022-12-11T07:58:00;16.37;;;9.20;;
8532;SDS011;4304;53.876;10.662;2022-12-11T08:00:26;19.43;;;7.80;;
8532;SDS011;4304;53.876;10.662;2022-12-11T08:02:51;14.43;;;7.17;;
8532;SDS011;4304;53.876;10.662;2022-12-11T08:05:20;16.43;;;7.37;;
8532;SDS011;4304;53.876;10.662;2022-12-11T08:07:46;17.87;;;6.70;;
8532;SDS011;4304;53.876;10.662;2022-12-11T08:10:11;15.97;;;6.67;;
8532;SDS011;4304;53.876;10.662;2022-12-11T08:12:37;15.00;;;6.97;;
8532;SDS011;4304;53.876;10.662;2022-12-11T08:15:04;12.80;;;6.77;;
8532;SDS011;4304;53.876;10.662;2022-12-11T08:17:36;9.17;;;6.07;;
8532;SDS011;4304;53.876;10.662;2022-12-11T08:20:05;11.60;;;6.17;;
8532;SDS011;4304;53.876;10.662;2022-12-11T08:22:31;16.30;;;7.63;;
8532;SDS011;4304;53.876;10.662;2022-12-11T08:27:47;12.87;;;5.23;;
8532;SDS011;4304;53.876;10.662;2022-12-11T08:30:15;22.40;;;9.67;;
8532;SDS011;4304;53.876;10.662;2022-12-11T08:32:40;14.83;;;7.87;;
8532;SDS011;4304;53.876;10.662;2022-12-11T08:35:05;13.73;;;7.83;;
8532;SDS011;4304;53.876;10.662;2022-12-11T08:37:32;15.20;;;7.43;;
8532;SDS011;4304;53.876;10.662;2022-12-11T08:39:58;12.37;;;6.43;;
8532;SDS011;4304;53.876;10.662;2022-12-11T08:42:34;20.03;;;6.17;;
8532;SDS011;4304;53.876;10.662;2022-12-11T08:45:00;12.97;;;6.47;;
8532;SDS011;4304;53.876;10.662;2022-12-11T08:47:25;9.00;;;5.17;;
8532;SDS011;4304;53.876;10.662;2022-12-11T08:49:51;15.60;;;6.57;;
8532;SDS011;4304;53.876;10.662;2022-12-11T08:52:16;14.17;;;6.47;;
8532;SDS011;4304;53.876;10.662;2022-12-11T08:54:41;12.53;;;5.73;;
8532;SDS011;4304;53.876;10.662;2022-12-11T08:57:06;16.03;;;7.30;;
8532;SDS011;4304;53.876;10.662;2022-12-11T08:59:31;13.70;;;6.43;;
8532;SDS011;4304;53.876;10.662;2022-12-11T09:01:57;18.17;;;7.27;;
8532;SDS011;4304;53.876;10.662;2022-12-11T09:04:22;13.23;;;7.60;;
8532;SDS011;4304;53.876;10.662;2022-12-11T09:06:47;16.03;;;6.53;;
8532;SDS011;4304;53.876;10.662;2022-12-11T09:09:13;16.40;;;8.63;;
8532;SDS011;4304;53.876;10.662;2022-12-11T09:11:38;13.47;;;6.53;;
8532;SDS011;4304;53.876;10.662;2022-12-11T09:14:03;17.07;;;9.63;;
8532;SDS011;4304;53.876;10.662;2022-12-11T09:16:40;13.03;;;6.80;;
8532;SDS011;4304;53.876;10.662;2022-12-11T09:19:06;17.37;;;7.33;;
8532;SDS011;4304;53.876;10.662;2022-12-11T09:21:35;17.37;;;8.37;;
8532;SDS011;4304;53.876;10.662;2022-12-11T09:24:00;14.67;;;6.73;;
8532;SDS011;4304;53.876;10.662;2022-12-11T09:26:26;15.80;;;7.43;;
8532;SDS011;4304;53.876;10.662;2022-12-11T09:28:53;18.53;;;7.43;;
8532;SDS011;4304;53.876;10.662;2022-12-11T09:31:25;17.53;;;8.00;;
8532;SDS011;4304;53.876;10.662;2022-12-11T09:33:53;14.83;;;6.97;;
8532;SDS011;4304;53.876;10.662;2022-12-11T09:36:20;12.27;;;6.67;;
8532;SDS011;4304;53.876;10.662;2022-12-11T09:38:45;12.13;;;6.57;;
8532;SDS011;4304;53.876;10.662;2022-12-11T09:43:45;15.00;;;6.73;;
8532;SDS011;4304;53.876;10.662;2022-12-11T09:46:15;14.03;;;6.53;;
8532;SDS011;4304;53.876;10.662;2022-12-11T09:48:50;14.73;;;6.80;;
8532;SDS011;4304;53.876;10.662;2022-12-11T09:51:26;14.27;;;7.20;;
8532;SDS011;4304;53.876;10.662;2022-12-11T09:54:00;17.77;;;8.60;;
8532;SDS011;4304;53.876;10.662;2022-12-11T10:07:19;70.17;;;30.73;;
8532;SDS011;4304;53.876;10.662;2022-12-11T10:09:57;98.90;;;39.70;;
8532;SDS011;4304;53.876;10.662;2022-12-11T10:18:04;31.40;;;13.37;;
8532;SDS011;4304;53.876;10.662;2022-12-11T10:20:36;21.20;;;9.00;;
8532;SDS011;4304;53.876;10.662;2022-12-11T10:23:02;17.27;;;8.73;;
8532;SDS011;4304;53.876;10.662;2022-12-11T10:25:39;15.93;;;9.50;;
8532;SDS011;4304;53.876;10.662;2022-12-11T10:28:10;12.37;;;6.63;;
8532;SDS011;4304;53.876;10.662;2022-12-11T10:30:38;15.13;;;7.23;;
8532;SDS011;4304;53.876;10.662;2022-12-11T10:33:19;16.13;;;10.50;;
8532;SDS011;4304;53.876;10.662;2022-12-11T10:35:57;17.97;;;9.47;;
8532;SDS011;4304;53.876;10.662;2022-12-11T10:38:27;18.33;;;8.47;;
8532;SDS011;4304;53.876;10.662;2022-12-11T10:40:59;16.63;;;7.03;;
8532;SDS011;4304;53.876;10.662;2022-12-11T10:43:46;14.87;;;7.20;;
8532;SDS011;4304;53.876;10.662;2022-12-11T10:46:14;16.60;;;7.70;;
8532;SDS011;4304;53.876;10.662;2022-12-11T10:48:49;12.47;;;6.67;;
8532;SDS011;4304;53.876;10.662;2022-12-11T10:53:54;15.20;;;6.53;;
8532;SDS011;4304;53.876;10.662;2022-12-11T10:56:26;12.93;;;6.40;;
8532;SDS011;4304;53.876;10.662;2022-12-11T10:58:52;15.70;;;7.77;;
8532;SDS011;4304;53.876;10.662;2022-12-11T11:01:22;14.40;;;7.93;;
8532;SDS011;4304;53.876;10.662;2022-12-11T11:03:56;15.33;;;7.57;;
8532;SDS011;4304;53.876;10.662;2022-12-11T11:06:44;15.70;;;7.93;;
8532;SDS011;4304;53.876;10.662;2022-12-11T11:12:01;16.30;;;7.70;;
8532;SDS011;4304;53.876;10.662;2022-12-11T11:14:27;15.67;;;7.20;;
8532;SDS011;4304;53.876;10.662;2022-12-11T11:16:56;17.47;;;8.13;;
8532;SDS011;4304;53.876;10.662;2022-12-11T11:19:34;13.37;;;6.97;;
8532;SDS011;4304;53.876;10.662;2022-12-11T11:22:15;17.97;;;7.43;;
8532;SDS011;4304;53.876;10.662;2022-12-11T11:24:51;12.03;;;6.97;;
8532;SDS011;4304;53.876;10.662;2022-12-11T11:27:29;57.23;;;26.87;;
8532;SDS011;4304;53.876;10.662;2022-12-11T11:30:04;19.23;;;9.10;;
8532;SDS011;4304;53.876;10.662;2022-12-11T11:32:41;17.53;;;7.90;;
8532;SDS011;4304;53.876;10.662;2022-12-11T11:37:37;15.67;;;7.40;;
8532;SDS011;4304;53.876;10.662;2022-12-11T11:40:12;11.70;;;6.80;;
8532;SDS011;4304;53.876;10.662;2022-12-11T11:45:29;13.80;;;7.07;;
8532;SDS011;4304;53.876;10.662;2022-12-11T11:51:06;13.57;;;7.67;;
8532;SDS011;4304;53.876;10.662;2022-12-11T11:53:53;13.50;;;6.90;;
8532;SDS011;4304;53.876;10.662;2022-12-11T11:56:25;14.30;;;6.33;;
8532;SDS011;4304;53.876;10.662;2022-12-11T11:58:55;12.80;;;6.50;;
8532;SDS011;4304;53.876;10.662;2022-12-11T12:01:25;12.53;;;6.90;;
8532;SDS011;4304;53.876;10.662;2022-12-11T12:03:51;18.97;;;7.43;;
8532;SDS011;4304;53.876;10.662;2022-12-11T12:06:32;59.90;;;22.17;;
8532;SDS011;4304;53.876;10.662;2022-12-11T12:14:33;64.60;;;20.60;;
8532;SDS011;4304;53.876;10.662;2022-12-11T12:22:04;28.50;;;11.30;;
8532;SDS011;4304;53.876;10.662;2022-12-11T12:24:42;19.97;;;8.70;;
8532;SDS011;4304;53.876;10.662;2022-12-11T12:30:43;22.83;;;8.00;;
8532;SDS011;4304;53.876;10.662;2022-12-11T12:48:09;22.97;;;7.67;;
8532;SDS011;4304;53.876;10.662;2022-12-11T12:50:36;15.37;;;7.60;;
8532;SDS011;4304;53.876;10.662;2022-12-11T12:53:05;11.80;;;6.73;;
8532;SDS011;4304;53.876;10.662;2022-12-11T12:55:32;19.97;;;8.60;;
8532;SDS011;4304;53.876;10.662;2022-12-11T12:57:59;13.93;;;8.03;;
8532;SDS011;4304;53.876;10.662;2022-12-11T13:03:00;15.60;;;7.97;;
8532;SDS011;4304;53.876;10.662;2022-12-11T13:05:39;16.83;;;7.97;;
8532;SDS011;4304;53.876;10.662;2022-12-11T13:08:06;16.13;;;8.27;;
8532;SDS011;4304;53.876;10.662;2022-12-11T13:10:32;27.80;;;7.60;;
8532;SDS011;4304;53.876;10.662;2022-12-11T13:13:03;18.50;;;7.30;;
8532;SDS011;4304;53.876;10.662;2022-12-11T13:18:03;16.37;;;6.90;;
8532;SDS011;4304;53.876;10.662;2022-12-11T13:20:49;18.47;;;7.17;;
8532;SDS011;4304;53.876;10.662;2022-12-11T13:23:16;15.40;;;7.50;;
8532;SDS011;4304;53.876;10.662;2022-12-11T13:25:57;15.00;;;7.03;;
8532;SDS011;4304;53.876;10.662;2022-12-11T13:28:28;16.83;;;7.77;;
8532;SDS011;4304;53.876;10.662;2022-12-11T13:31:22;14.47;;;7.10;;
8532;SDS011;4304;53.876;10.662;2022-12-11T13:33:56;15.67;;;7.53;;
8532;SDS011;4304;53.876;10.662;2022-12-11T13:36:31;19.67;;;8.13;;
8532;SDS011;4304;53.876;10.662;2022-12-11T13:41:58;21.57;;;8.27;;
8532;SDS011;4304;53.876;10.662;2022-12-11T13:44:27;15.17;;;7.43;;
8532;SDS011;4304;53.876;10.662;2022-12-11T13:46:55;13.90;;;7.43;;
8532;SDS011;4304;53.876;10.662;2022-12-11T13:49:23;16.07;;;8.40;;
8532;SDS011;4304;53.876;10.662;2022-12-11T13:51:54;18.20;;;7.90;;
8532;SDS011;4304;53.876;10.662;2022-12-11T13:54:20;16.53;;;7.70;;
8532;SDS011;4304;53.876;10.662;2022-12-11T14:04:57;22.23;;;7.70;;
8532;SDS011;4304;53.876;10.662;2022-12-11T14:07:27;16.53;;;7.60;;
8532;SDS011;4304;53.876;10.662;2022-12-11T14:09:58;13.40;;;6.97;;
8532;SDS011;4304;53.876;10.662;2022-12-11T14:12:30;13.23;;;7.80;;
8532;SDS011;4304;53.876;10.662;2022-12-11T14:14:56;17.80;;;7.10;;
8532;SDS011;4304;53.876;10.662;2022-12-11T14:17:24;15.80;;;7.67;;
8532;SDS011;4304;53.876;10.662;2022-12-11T14:19:52;17.60;;;8.10;;
8532;SDS011;4304;53.876;10.662;2022-12-11T14:22:20;16.80;;;8.23;;
8532;SDS011;4304;53.876;10.662;2022-12-11T14:24:57;15.07;;;8.17;;
8532;SDS011;4304;53.876;10.662;2022-12-11T14:27:25;16.87;;;7.97;;
8532;SDS011;4304;53.876;10.662;2022-12-11T14:29:52;15.83;;;7.80;;
8532;SDS011;4304;53.876;10.662;2022-12-11T14:32:29;22.30;;;8.50;;
8532;SDS011;4304;53.876;10.662;2022-12-11T14:34:57;25.77;;;10.40;;
8532;SDS011;4304;53.876;10.662;2022-12-11T14:37:25;24.90;;;10.80;;
8532;SDS011;4304;53.876;10.662;2022-12-11T14:42:43;29.80;;;11.20;;
8532;SDS011;4304;53.876;10.662;2022-12-11T14:45:19;23.80;;;10.17;;
8532;SDS011;4304;53.876;10.662;2022-12-11T14:47:59;18.23;;;8.83;;
8532;SDS011;4304;53.876;10.662;2022-12-11T14:50:28;17.63;;;8.00;;
8532;SDS011;4304;53.876;10.662;2022-12-11T14:53:01;19.90;;;7.67;;
8532;SDS011;4304;53.876;10.662;2022-12-11T14:55:32;18.17;;;8.43;;
8532;SDS011;4304;53.876;10.662;2022-12-11T14:58:21;13.70;;;7.40;;
8532;SDS011;4304;53.876;10.662;2022-12-11T15:01:06;19.47;;;9.50;;
8532;SDS011;4304;53.876;10.662;2022-12-11T15:03:44;44.27;;;16.90;;
8532;SDS011;4304;53.876;10.662;2022-12-11T15:09:15;210.53;;;66.27;;
8532;SDS011;4304;53.876;10.662;2022-12-11T15:11:45;128.07;;;40.37;;
8532;SDS011;4304;53.876;10.662;2022-12-11T15:14:14;70.20;;;24.63;;
8532;SDS011;4304;53.876;10.662;2022-12-11T15:16:41;20.10;;;8.47;;
8532;SDS011;4304;53.876;10.662;2022-12-11T15:19:13;21.63;;;9.43;;
8532;SDS011;4304;53.876;10.662;2022-12-11T15:21:45;18.63;;;8.63;;
8532;SDS011;4304;53.876;10.662;2022-12-11T15:24:20;19.13;;;8.80;;
8532;SDS011;4304;53.876;10.662;2022-12-11T15:26:56;16.97;;;8.67;;
8532;SDS011;4304;53.876;10.662;2022-12-11T15:29:29;18.30;;;9.33;;
8532;SDS011;4304;53.876;10.662;2022-12-11T15:32:17;18.80;;;8.10;;
8532;SDS011;4304;53.876;10.662;2022-12-11T15:34:50;16.07;;;7.47;;
8532;SDS011;4304;53.876;10.662;2022-12-11T15:37:30;20.03;;;7.87;;
8532;SDS011;4304;53.876;10.662;2022-12-11T15:39:57;18.63;;;9.13;;
8532;SDS011;4304;53.876;10.662;2022-12-11T15:42:34;15.13;;;8.00;;
8532;SDS011;4304;53.876;10.662;2022-12-11T15:45:02;27.17;;;13.03;;
8532;SDS011;4304;53.876;10.662;2022-12-11T15:47:33;25.37;;;12.20;;
8532;SDS011;4304;53.876;10.662;2022-12-11T15:50:00;30.67;;;14.23;;
8532;SDS011;4304;53.876;10.662;2022-12-11T15:52:31;24.97;;;12.57;;
8532;SDS011;4304;53.876;10.662;2022-12-11T15:54:56;28.47;;;11.23;;
8532;SDS011;4304;53.876;10.662;2022-12-11T15:57:28;27.13;;;10.63;;
8532;SDS011;4304;53.876;10.662;2022-12-11T15:59:53;15.67;;;8.27;;
8532;SDS011;4304;53.876;10.662;2022-12-11T16:02:19;13.50;;;7.50;;
8532;SDS011;4304;53.876;10.662;2022-12-11T16:04:54;19.03;;;12.07;;
8532;SDS011;4304;53.876;10.662;2022-12-11T16:07:20;16.30;;;8.90;;
8532;SDS011;4304;53.876;10.662;2022-12-11T16:09:47;19.47;;;8.53;;
8532;SDS011;4304;53.876;10.662;2022-12-11T16:12:13;16.73;;;7.57;;
8532;SDS011;4304;53.876;10.662;2022-12-11T16:14:39;18.93;;;8.50;;
8532;SDS011;4304;53.876;10.662;2022-12-11T16:17:05;23.80;;;9.90;;
8532;SDS011;4304;53.876;10.662;2022-12-11T16:19:32;21.43;;;8.43;;
8532;SDS011;4304;53.876;10.662;2022-12-11T16:21:59;18.90;;;8.07;;
8532;SDS011;4304;53.876;10.662;2022-12-11T16:24:25;20.87;;;8.57;;
8532;SDS011;4304;53.876;10.662;2022-12-11T16:26:50;16.47;;;8.27;;
8532;SDS011;4304;53.876;10.662;2022-12-11T16:29:26;15.17;;;8.23;;
8532;SDS011;4304;53.876;10.662;2022-12-11T16:31:51;18.03;;;8.30;;
8532;SDS011;4304;53.876;10.662;2022-12-11T16:34:16;18.37;;;8.90;;
8532;SDS011;4304;53.876;10.662;2022-12-11T16:36:42;16.87;;;8.27;;
8532;SDS011;4304;53.876;10.662;2022-12-11T16:39:09;21.67;;;8.63;;
8532;SDS011;4304;53.876;10.662;2022-12-11T16:41:35;23.10;;;9.40;;
8532;SDS011;4304;53.876;10.662;2022-12-11T16:44:00;18.77;;;8.53;;
8532;SDS011;4304;53.876;10.662;2022-12-11T16:46:26;21.33;;;8.93;;
8532;SDS011;4304;53.876;10.662;2022-12-11T16:48:51;19.90;;;10.20;;
8532;SDS011;4304;53.876;10.662;2022-12-11T16:51:17;17.80;;;9.13;;
8532;SDS011;4304;53.876;10.662;2022-12-11T16:53:42;20.27;;;9.77;;
8532;SDS011;4304;53.876;10.662;2022-12-11T16:56:08;20.63;;;10.13;;
8532;SDS011;4304;53.876;10.662;2022-12-11T16:58:33;21.40;;;9.57;;
8532;SDS011;4304;53.876;10.662;2022-12-11T17:00:59;20.63;;;10.33;;
8532;SDS011;4304;53.876;10.662;2022-12-11T17:03:24;22.70;;;9.47;;
8532;SDS011;4304;53.876;10.662;2022-12-11T17:05:50;23.77;;;10.47;;